Time;durP1;ratioP1;P1;durP2;ratioP2;P2;SDS_P1;SDS_P2;PMS_P1;PMS_P2;Temp;Humidity;BMP_temperature;BMP_pressure;BME280_temperature;BME280_humidity;BME280_pressure;Samples;Min_cycle;Max_cycle;Signal;HPM_P1;HPM_P2
2023/06/09 00:01:35;;;;;;;0.15;0.13;;;10.10;99.90;;;;;;5049218;28;20518;-86
2023/06/09 00:04:06;;;;;;;0.68;0.30;;;11.10;99.90;;;;;;5050656;28;20067;-86
2023/06/09 00:06:33;;;;;;;0.30;0.30;;;10.00;99.90;;;;;;5050789;28;20052;-87
2023/06/09 00:08:58;;;;;;;0.50;0.50;;;10.90;99.90;;;;;;5049547;28;20061;-86
2023/06/09 00:11:25;;;;;;;5.10;1.55;;;11.00;99.90;;;;;;5066020;28;20045;-87
2023/06/09 00:13:51;;;;;;;0.20;0.15;;;10.00;99.90;;;;;;5051141;28;20049;-86
2023/06/09 00:16:17;;;;;;;0.00;0.00;;;10.00;99.90;;;;;;5049374;28;20381;-86
2023/06/09 00:18:43;;;;;;;0.47;0.47;;;10.00;99.90;;;;;;5049480;28;20056;-86
2023/06/09 00:21:10;;;;;;;0.20;0.20;;;10.00;99.90;;;;;;5045826;28;20048;-86
2023/06/09 00:23:36;;;;;;;0.13;0.13;;;10.00;99.90;;;;;;5012749;28;20045;-87
2023/06/09 00:26:02;;;;;;;0.20;0.20;;;10.00;99.90;;;;;;5031596;28;20049;-87
2023/06/09 00:28:28;;;;;;;2.17;1.45;;;11.20;99.90;;;;;;5031539;28;20057;-87
2023/06/09 00:30:53;;;;;;;0.15;0.15;;;10.00;99.90;;;;;;5013788;28;20140;-86
2023/06/09 00:33:19;;;;;;;0.57;0.57;;;10.00;99.90;;;;;;5029614;28;20042;-86
2023/06/09 00:35:45;;;;;;;0.00;0.00;;;10.10;99.90;;;;;;5031622;28;20055;-86
2023/06/09 00:38:10;;;;;;;0.10;0.10;;;10.10;99.90;;;;;;5032473;28;20045;-86
2023/06/09 00:40:36;;;;;;;1.13;0.65;;;10.00;99.90;;;;;;5032471;28;20514;-86
2023/06/09 00:43:02;;;;;;;2.15;0.85;;;11.20;99.90;;;;;;5049815;28;20119;-87
2023/06/09 00:45:28;;;;;;;1.75;0.95;;;10.10;99.90;;;;;;5033425;28;20049;-86
2023/06/09 00:47:55;;;;;;;0.20;0.15;;;10.10;99.90;;;;;;5050786;28;20047;-86
2023/06/09 00:50:20;;;;;;;0.13;0.13;;;10.10;99.90;;;;;;5032793;28;20053;-86
2023/06/09 00:52:48;;;;;;;1.45;0.40;;;10.10;99.90;;;;;;5032844;28;20190;-86
2023/06/09 00:55:17;;;;;;;0.05;0.05;;;10.20;99.90;;;;;;5049246;28;20125;-86
2023/06/09 00:57:43;;;;;;;5.43;0.98;;;10.00;99.90;;;;;;5051128;28;20045;-87
2023/06/09 01:00:13;;;;;;;0.00;0.00;;;10.00;99.90;;;;;;5049856;28;20053;-87
2023/06/09 01:02:39;;;;;;;0.00;0.00;;;10.00;99.90;;;;;;5049292;28;20056;-86
2023/06/09 01:05:08;;;;;;;0.38;0.20;;;10.00;99.90;;;;;;5054371;28;20071;-86
2023/06/09 01:07:55;;;;;;;0.00;0.00;;;10.00;99.90;;;;;;5054714;28;20441;-86
2023/06/09 01:10:45;;;;;;;0.10;0.10;;;10.00;99.90;;;;;;5054223;28;20057;-87
2023/06/09 01:13:41;;;;;;;0.35;0.28;;;10.00;99.90;;;;;;5052350;28;20049;-86
2023/06/09 01:16:15;;;;;;;0.15;0.15;;;11.10;99.90;;;;;;5011910;28;20085;-86
2023/06/09 01:18:42;;;;;;;1.88;1.27;;;10.90;99.90;;;;;;5032522;28;20085;-87
2023/06/09 01:21:40;;;;;;;0.00;0.00;;;9.90;99.90;;;;;;5034047;28;20085;-86
2023/06/09 01:24:33;;;;;;;0.10;0.10;;;9.90;99.90;;;;;;5031896;28;20058;-86
2023/06/09 01:27:01;;;;;;;0.15;0.15;;;9.90;99.90;;;;;;5031792;28;20049;-86
2023/06/09 01:29:32;;;;;;;0.85;0.47;;;9.90;99.90;;;;;;5031754;28;20053;-87
2023/06/09 01:31:59;;;;;;;0.20;0.10;;;9.90;99.90;;;;;;5015348;28;20049;-87
2023/06/09 01:34:26;;;;;;;0.00;0.00;;;9.90;99.90;;;;;;5032645;28;20045;-86
2023/06/09 01:36:52;;;;;;;0.57;0.57;;;9.90;99.90;;;;;;5032748;28;20045;-86
2023/06/09 01:39:18;;;;;;;0.22;0.22;;;9.90;99.90;;;;;;5031519;28;20859;-86
2023/06/09 01:41:44;;;;;;;0.73;0.70;;;10.00;99.90;;;;;;5031704;28;20041;-87
2023/06/09 01:44:10;;;;;;;0.13;0.10;;;9.90;99.90;;;;;;5051706;28;20135;-86
2023/06/09 01:46:36;;;;;;;0.28;0.28;;;11.20;99.90;;;;;;5052588;28;20053;-86
2023/06/09 01:49:14;;;;;;;0.50;0.40;;;9.90;99.90;;;;;;5052529;28;20037;-86
2023/06/09 01:51:46;;;;;;;0.98;0.47;;;10.70;99.90;;;;;;5052882;28;20049;-86
2023/06/09 01:54:16;;;;;;;0.00;0.00;;;11.00;99.90;;;;;;5051360;28;20056;-86
2023/06/09 01:56:53;;;;;;;1.55;1.00;;;9.90;99.90;;;;;;5051032;28;20053;-85
2023/06/09 01:59:24;;;;;;;0.50;0.30;;;11.00;99.90;;;;;;5051920;28;20045;-86
2023/06/09 02:01:54;;;;;;;0.38;0.35;;;10.60;99.90;;;;;;5050407;28;20149;-87
2023/06/09 02:04:23;;;;;;;3.42;1.30;;;9.80;99.90;;;;;;5052238;28;20148;-86
2023/06/09 02:06:51;;;;;;;0.05;0.05;;;9.90;99.90;;;;;;5052239;28;20080;-86
2023/06/09 02:09:17;;;;;;;0.00;0.00;;;9.80;99.90;;;;;;5051853;28;20110;-86
2023/06/09 02:11:49;;;;;;;0.00;0.00;;;9.90;99.90;;;;;;5050448;28;20053;-86
2023/06/09 02:14:15;;;;;;;3.33;1.08;;;10.90;99.90;;;;;;5031432;28;20084;-86
2023/06/09 02:16:41;;;;;;;0.40;0.22;;;10.90;99.90;;;;;;5029441;28;20089;-86
2023/06/09 02:19:07;;;;;;;2.55;0.93;;;9.90;99.90;;;;;;5031871;28;20115;-86
2023/06/09 02:21:33;;;;;;;1.13;0.57;;;9.80;99.90;;;;;;5031993;28;20045;-86
2023/06/09 02:23:58;;;;;;;1.48;1.38;;;9.80;99.90;;;;;;5030962;28;20052;-87
2023/06/09 02:26:24;;;;;;;0.55;0.47;;;9.80;99.90;;;;;;5030811;28;20046;-87
2023/06/09 02:28:50;;;;;;;0.30;0.20;;;9.80;99.90;;;;;;5030581;28;20056;-86
2023/06/09 02:31:15;;;;;;;0.45;0.45;;;10.70;99.90;;;;;;5030291;28;20053;-86
2023/06/09 02:33:41;;;;;;;3.67;0.52;;;9.80;99.90;;;;;;5032136;28;20084;-86
2023/06/09 02:36:07;;;;;;;0.40;0.13;;;9.80;99.90;;;;;;5030885;28;20075;-86
2023/06/09 02:38:32;;;;;;;0.15;0.15;;;9.90;99.90;;;;;;5030298;28;20056;-86
2023/06/09 02:40:58;;;;;;;0.10;0.10;;;10.30;99.90;;;;;;5031717;28;20091;-86
2023/06/09 02:43:24;;;;;;;0.65;0.65;;;9.90;99.90;;;;;;5031725;28;20081;-86
2023/06/09 02:45:50;;;;;;;0.22;0.22;;;9.90;99.90;;;;;;5030950;28;20042;-86
2023/06/09 02:48:15;;;;;;;1.27;1.05;;;9.90;99.90;;;;;;5031402;28;20050;-86
2023/06/09 02:50:41;;;;;;;0.00;0.00;;;9.90;99.90;;;;;;5031156;28;20099;-86
2023/06/09 02:53:07;;;;;;;3.42;1.75;;;9.90;99.90;;;;;;5048857;28;20049;-86
2023/06/09 02:55:33;;;;;;;0.98;0.75;;;9.90;99.90;;;;;;5051308;28;20083;-86
2023/06/09 02:57:59;;;;;;;1.20;1.00;;;9.90;99.90;;;;;;5049875;28;20045;-86
2023/06/09 03:00:25;;;;;;;0.30;0.30;;;9.80;99.90;;;;;;5050974;28;20136;-86
2023/06/09 03:02:51;;;;;;;0.03;0.03;;;9.80;99.90;;;;;;5050742;28;20519;-84
2023/06/09 03:05:20;;;;;;;5.18;1.38;;;9.80;99.90;;;;;;5050529;28;20041;-86
2023/06/09 03:07:50;;;;;;;0.00;0.00;;;11.00;99.90;;;;;;5050130;28;20065;-87
2023/06/09 03:10:18;;;;;;;0.15;0.15;;;10.00;99.90;;;;;;5049242;28;20483;-86
2023/06/09 03:12:43;;;;;;;0.00;0.00;;;9.80;99.90;;;;;;5050884;28;20060;-86
2023/06/09 03:15:09;;;;;;;0.50;0.50;;;10.70;99.90;;;;;;5033651;28;20073;-86
2023/06/09 03:17:35;;;;;;;1.08;0.57;;;9.80;99.90;;;;;;5050254;28;20105;-86
2023/06/09 03:20:01;;;;;;;2.33;0.52;;;9.80;99.90;;;;;;5049118;28;20048;-86
2023/06/09 03:22:27;;;;;;;0.00;0.00;;;9.90;99.90;;;;;;5050015;28;20659;-87
2023/06/09 03:24:53;;;;;;;0.22;0.22;;;9.90;99.90;;;;;;5049643;28;20549;-86
2023/06/09 03:27:18;;;;;;;0.45;0.43;;;9.90;99.90;;;;;;5040257;28;20033;-86
2023/06/09 03:29:44;;;;;;;0.45;0.40;;;11.10;99.90;;;;;;5029570;28;20049;-86
2023/06/09 03:32:10;;;;;;;3.38;2.03;;;10.50;99.90;;;;;;5029806;28;20128;-86
2023/06/09 03:34:36;;;;;;;0.20;0.20;;;10.00;99.90;;;;;;5030292;28;20045;-86
2023/06/09 03:37:04;;;;;;;0.15;0.15;;;10.00;99.90;;;;;;5032242;28;20076;-86
2023/06/09 03:39:29;;;;;;;1.25;0.60;;;10.00;99.90;;;;;;5050865;28;20051;-86
2023/06/09 03:41:56;;;;;;;1.30;1.00;;;10.00;99.90;;;;;;5048354;28;20329;-86
2023/06/09 03:44:22;;;;;;;11.45;3.25;;;10.10;99.90;;;;;;5033062;28;20072;-87
2023/06/09 03:46:48;;;;;;;1.52;0.63;;;10.10;99.90;;;;;;5038442;28;20471;-87
2023/06/09 03:49:14;;;;;;;0.25;0.20;;;10.10;99.90;;;;;;5039196;28;20046;-84
2023/06/09 03:51:39;;;;;;;0.10;0.10;;;10.10;99.90;;;;;;5039845;28;20495;-84
2023/06/09 03:54:05;;;;;;;0.30;0.30;;;10.10;99.90;;;;;;5028452;28;20022;-85
2023/06/09 03:56:31;;;;;;;1.33;1.10;;;10.20;99.90;;;;;;5041773;28;20071;-85
2023/06/09 03:58:57;;;;;;;1.00;0.85;;;10.30;99.90;;;;;;5038075;28;20484;-86
2023/06/09 04:01:25;;;;;;;0.00;0.00;;;10.30;99.90;;;;;;5029998;28;20052;-85
2023/06/09 04:03:51;;;;;;;0.52;0.45;;;10.80;99.90;;;;;;5031304;28;20595;-85
2023/06/09 04:06:16;;;;;;;0.73;0.63;;;10.40;99.90;;;;;;5013477;28;20068;-85
2023/06/09 04:08:44;;;;;;;0.70;0.70;;;10.40;99.90;;;;;;5028428;28;20057;-85
2023/06/09 04:11:10;;;;;;;2.05;1.23;;;11.40;99.90;;;;;;5030339;28;20057;-85
2023/06/09 04:13:35;;;;;;;0.43;0.43;;;10.60;99.90;;;;;;5030178;28;20569;-86
2023/06/09 04:16:01;;;;;;;13.43;1.13;;;10.60;99.90;;;;;;5028588;28;20041;-86
2023/06/09 04:18:27;;;;;;;0.10;0.10;;;11.10;99.90;;;;;;5010646;28;20080;-85
2023/06/09 04:20:53;;;;;;;2.35;2.13;;;10.70;99.90;;;;;;5026393;28;20081;-85
2023/06/09 04:23:18;;;;;;;0.00;0.00;;;10.80;99.90;;;;;;5026202;28;20092;-85
2023/06/09 04:25:45;;;;;;;0.73;0.73;;;10.90;99.90;;;;;;5027871;28;20083;-85
2023/06/09 04:28:11;;;;;;;0.32;0.32;;;11.00;99.90;;;;;;5039362;28;20867;-85
2023/06/09 04:30:38;;;;;;;13.57;2.28;;;11.20;99.90;;;;;;5047258;28;20072;-85
2023/06/09 04:33:04;;;;;;;4.80;0.52;;;12.30;99.90;;;;;;5043122;28;20397;-86
2023/06/09 04:35:31;;;;;;;5.15;0.80;;;11.70;99.90;;;;;;5028947;28;20061;-85
2023/06/09 04:37:59;;;;;;;1.08;0.73;;;11.40;99.90;;;;;;5028662;28;20064;-85
2023/06/09 04:40:25;;;;;;;0.80;0.43;;;11.50;99.90;;;;;;5014858;28;20057;-86
2023/06/09 04:42:59;;;;;;;1.35;0.43;;;12.10;99.90;;;;;;5032591;28;20103;-85
2023/06/09 04:45:28;;;;;;;1.10;0.57;;;11.70;99.90;;;;;;5035287;28;20084;-86
2023/06/09 04:47:57;;;;;;;0.68;0.52;;;11.80;99.90;;;;;;5035265;28;20382;-86
2023/06/09 04:50:24;;;;;;;0.47;0.28;;;12.00;99.90;;;;;;5035212;28;20095;-85
2023/06/09 04:52:49;;;;;;;3.80;1.83;;;12.40;99.90;;;;;;5034175;28;20041;-85
2023/06/09 04:55:15;;;;;;;1.90;1.08;;;13.60;99.90;;;;;;5050686;28;20053;-85
2023/06/09 04:57:40;;;;;;;1.15;0.93;;;13.00;99.90;;;;;;5027936;28;20049;-86
2023/06/09 05:00:12;;;;;;;1.23;0.60;;;13.50;99.90;;;;;;5032982;28;20049;-86
2023/06/09 05:02:39;;;;;;;5.15;1.10;;;13.80;99.90;;;;;;5032989;28;20049;-86
2023/06/09 05:05:05;;;;;;;0.52;0.52;;;14.20;99.90;;;;;;5030734;28;20076;-86
2023/06/09 05:07:31;;;;;;;0.55;0.55;;;14.50;1.00;;;;;;5031628;28;20049;-86
2023/06/09 05:09:57;;;;;;;2.42;1.23;;;15.30;1.00;;;;;;5032960;28;20518;-86
2023/06/09 05:12:22;;;;;;;1.42;1.13;;;15.20;99.90;;;;;;5030497;28;20532;-86
2023/06/09 05:14:48;;;;;;;0.43;0.17;;;15.40;99.60;;;;;;5013820;28;20057;-86
2023/06/09 05:17:15;;;;;;;2.33;1.85;;;15.60;99.90;;;;;;5036237;28;20087;-86
2023/06/09 05:19:42;;;;;;;0.95;0.65;;;16.10;1.00;;;;;;5031766;28;20057;-86
2023/06/09 05:22:08;;;;;;;0.80;0.52;;;15.80;99.90;;;;;;5034454;28;20494;-86
2023/06/09 05:24:44;;;;;;;0.25;0.25;;;16.80;99.90;;;;;;5033113;28;20049;-87
2023/06/09 05:27:10;;;;;;;1.50;1.38;;;17.20;1.00;;;;;;5033351;28;20043;-86
2023/06/09 05:29:46;;;;;;;0.35;0.25;;;16.40;99.90;;;;;;5033076;28;20057;-86
2023/06/09 05:32:11;;;;;;;0.57;0.38;;;17.20;99.90;;;;;;5049640;28;20053;-86
2023/06/09 05:34:37;;;;;;;1.55;1.08;;;18.30;99.90;;;;;;5063198;28;20053;-86
2023/06/09 05:37:04;;;;;;;1.42;0.88;;;17.10;27.10;;;;;;5027898;28;20083;-86
2023/06/09 05:39:30;;;;;;;0.47;0.40;;;17.50;99.90;;;;;;5025814;28;20049;-87
2023/06/09 05:41:56;;;;;;;0.20;0.20;;;18.50;1.00;;;;;;5025900;28;20144;-87
2023/06/09 05:44:22;;;;;;;5.57;1.75;;;17.80;99.90;;;;;;5056615;28;20140;-87
2023/06/09 05:46:48;;;;;;;1.63;1.10;;;18.20;1.00;;;;;;5056296;28;20124;-87
2023/06/09 05:49:13;;;;;;;1.13;1.02;;;18.10;99.90;;;;;;5024635;28;20069;-87
2023/06/09 05:51:39;;;;;;;2.13;1.33;;;18.20;99.90;;;;;;5056327;28;20049;-86
2023/06/09 05:54:06;;;;;;;1.25;0.45;;;18.60;99.90;;;;;;5022635;28;20061;-87
2023/06/09 05:56:32;;;;;;;3.60;1.35;;;18.30;98.20;;;;;;5055522;28;20046;-87
2023/06/09 05:59:03;;;;;;;0.52;0.40;;;19.20;78.50;;;;;;5042319;28;20053;-87
2023/06/09 06:01:32;;;;;;;0.68;0.57;;;18.70;80.70;;;;;;5028489;28;20064;-87
2023/06/09 06:03:58;;;;;;;1.45;0.75;;;19.30;1.00;;;;;;5026760;28;20120;-87
2023/06/09 06:06:24;;;;;;;1.42;0.65;;;19.70;1.00;;;;;;5057392;28;20046;-87
2023/06/09 06:08:50;;;;;;;1.25;0.90;;;19.80;1.00;;;;;;5023906;28;20049;-87
2023/06/09 06:11:16;;;;;;;3.63;1.45;;;20.00;99.90;;;;;;5026313;28;20046;-87
2023/06/09 06:13:41;;;;;;;0.55;0.55;;;19.70;99.90;;;;;;5026974;28;20051;-87
2023/06/09 06:16:07;;;;;;;0.63;0.63;;;19.70;99.90;;;;;;5026080;28;20041;-87
2023/06/09 06:18:33;;;;;;;1.55;1.17;;;20.20;99.90;;;;;;5025206;28;20057;-87
2023/06/09 06:20:58;;;;;;;0.82;0.80;;;20.50;99.90;;;;;;5008173;28;20081;-87
2023/06/09 06:23:25;;;;;;;0.50;0.28;;;20.80;99.90;;;;;;5058566;28;20037;-87
2023/06/09 06:25:50;;;;;;;1.40;0.80;;;21.00;99.90;;;;;;5025139;28;20057;-87
2023/06/09 06:28:16;;;;;;;0.13;0.13;;;21.40;99.90;;;;;;5024800;28;20120;-87
2023/06/09 06:30:43;;;;;;;1.05;0.55;;;21.80;99.90;;;;;;5024406;28;20099;-87
2023/06/09 06:33:08;;;;;;;0.90;0.60;;;22.00;99.90;;;;;;5026550;28;20042;-87
2023/06/09 06:35:34;;;;;;;0.43;0.43;;;22.40;99.90;;;;;;5057956;28;20111;-87
2023/06/09 06:38:01;;;;;;;0.80;0.80;;;22.60;99.90;;;;;;5025544;28;20045;-87
2023/06/09 06:40:27;;;;;;;1.35;0.52;;;22.90;99.90;;;;;;5025112;28;20056;-88
2023/06/09 06:42:54;;;;;;;2.25;0.45;;;23.10;99.90;;;;;;5007696;28;20049;-87
2023/06/09 06:45:20;;;;;;;0.40;0.40;;;23.10;99.90;;;;;;5025932;28;20467;-87
2023/06/09 06:47:46;;;;;;;6.07;0.88;;;23.10;99.90;;;;;;5025769;28;20128;-87
2023/06/09 06:50:12;;;;;;;0.55;0.55;;;23.30;99.90;;;;;;5056847;28;20045;-87
2023/06/09 06:52:38;;;;;;;3.10;1.65;;;23.00;99.90;;;;;;5024481;28;20050;-88
2023/06/09 06:55:07;;;;;;;0.75;0.52;;;23.10;99.90;;;;;;5024829;28;20057;-87
2023/06/09 06:57:34;;;;;;;0.20;0.20;;;23.70;99.90;;;;;;5024620;28;20056;-87
2023/06/09 07:00:00;;;;;;;0.82;0.63;;;24.40;99.90;;;;;;5024821;28;20120;-87
2023/06/09 07:02:25;;;;;;;1.17;0.88;;;24.70;99.90;;;;;;5022785;28;20132;-86
2023/06/09 07:04:51;;;;;;;2.83;1.30;;;24.40;99.90;;;;;;5006799;28;20212;-87
2023/06/09 07:07:16;;;;;;;1.13;0.52;;;24.20;75.00;;;;;;5026205;28;20045;-88
2023/06/09 07:09:42;;;;;;;5.47;0.90;;;24.40;63.50;;;;;;5010948;28;20610;-88
2023/06/09 07:12:08;;;;;;;1.70;0.88;;;24.60;86.70;;;;;;5024679;28;20049;-87
2023/06/09 07:14:35;;;;;;;1.02;0.57;;;24.90;69.30;;;;;;5006445;28;20053;-88
2023/06/09 07:17:01;;;;;;;1.20;1.00;;;25.30;78.10;;;;;;5021587;28;20073;-88
2023/06/09 07:19:26;;;;;;;3.30;1.13;;;24.70;35.80;;;;;;5021537;28;20038;-88
2023/06/09 07:21:52;;;;;;;2.65;0.98;;;24.60;36.40;;;;;;5023302;28;20053;-88
2023/06/09 07:24:18;;;;;;;1.80;1.02;;;25.30;38.20;;;;;;5023227;28;20142;-87
2023/06/09 07:26:44;;;;;;;0.32;0.30;;;25.50;72.80;;;;;;5023529;28;20120;-87
2023/06/09 07:29:10;;;;;;;0.82;0.60;;;25.80;38.60;;;;;;5027040;28;20052;-87
2023/06/09 07:31:35;;;;;;;0.22;0.13;;;25.90;39.80;;;;;;5025457;28;20088;-87
2023/06/09 07:34:01;;;;;;;0.55;0.30;;;26.10;64.40;;;;;;5022910;28;20046;-87
2023/06/09 07:36:29;;;;;;;0.20;0.20;;;26.50;37.20;;;;;;5023377;28;20147;-88
2023/06/09 07:38:55;;;;;;;1.25;0.70;;;26.90;58.20;;;;;;5022227;28;20053;-87
2023/06/09 07:41:21;;;;;;;4.57;1.23;;;27.60;71.70;;;;;;5022765;28;20068;-88
2023/06/09 07:43:47;;;;;;;0.52;0.50;;;27.30;4.00;;;;;;5024292;28;20132;-88
2023/06/09 07:46:14;;;;;;;1.55;0.93;;;26.10;1.00;;;;;;5022583;28;20184;-88
2023/06/09 07:48:42;;;;;;;1.35;0.63;;;26.20;1.00;;;;;;5022772;28;20126;-90
2023/06/09 07:51:08;;;;;;;6.18;1.42;;;26.10;1.00;;;;;;5054654;28;20124;-88
2023/06/09 07:53:36;;;;;;;1.25;1.00;;;26.70;1.00;;;;;;5020933;28;20058;-88
2023/06/09 07:56:03;;;;;;;0.45;0.45;;;27.20;1.00;;;;;;5022660;28;20046;-88
2023/06/09 07:58:29;;;;;;;0.55;0.55;;;27.40;1.00;;;;;;5023651;28;20038;-88
2023/06/09 08:00:54;;;;;;;1.20;0.85;;;26.80;1.00;;;;;;5022162;28;20061;-88
2023/06/09 08:03:20;;;;;;;0.70;0.60;;;27.40;1.00;;;;;;5022486;28;20685;-88
2023/06/09 08:05:47;;;;;;;0.55;0.50;;;27.90;1.00;;;;;;5023191;28;20128;-88
2023/06/09 08:08:12;;;;;;;0.35;0.35;;;28.20;1.00;;;;;;5054308;28;20065;-88
2023/06/09 08:10:38;;;;;;;0.32;0.22;;;28.00;1.00;;;;;;5022989;28;20072;-88
2023/06/09 08:13:04;;;;;;;1.52;0.75;;;28.60;1.00;;;;;;5024647;28;20053;-88
2023/06/09 08:15:30;;;;;;;0.20;0.17;;;28.80;1.00;;;;;;5027202;28;20107;-88
2023/06/09 08:17:56;;;;;;;1.95;1.10;;;29.20;1.00;;;;;;5025934;28;20049;-88
2023/06/09 08:20:22;;;;;;;0.65;0.65;;;29.20;1.00;;;;;;5027192;28;20050;-88
2023/06/09 08:22:47;;;;;;;5.95;1.48;;;29.50;1.00;;;;;;5044753;28;20423;-88
2023/06/09 08:25:13;;;;;;;0.45;0.30;;;29.20;1.00;;;;;;5027318;28;20050;-88
2023/06/09 08:27:39;;;;;;;2.30;0.65;;;29.90;1.00;;;;;;5026528;28;20432;-88
2023/06/09 08:30:06;;;;;;;1.20;0.70;;;29.40;1.00;;;;;;5026365;28;20056;-88
2023/06/09 08:32:33;;;;;;;1.58;0.98;;;30.20;1.00;;;;;;5026603;28;20045;-88
2023/06/09 08:35:05;;;;;;;0.90;0.82;;;30.30;1.00;;;;;;5026627;28;20045;-88
2023/06/09 08:37:32;;;;;;;0.10;0.10;;;29.60;1.00;;;;;;5026797;28;20523;-88
2023/06/09 08:40:00;;;;;;;0.05;0.05;;;30.30;1.00;;;;;;5026871;28;20289;-88
2023/06/09 08:42:30;;;;;;;0.40;0.40;;;31.00;1.00;;;;;;5025456;28;20049;-88
2023/06/09 08:45:06;;;;;;;7.65;0.75;;;30.70;1.00;;;;;;5026397;28;20049;-88
2023/06/09 08:47:33;;;;;;;0.50;0.28;;;30.40;1.00;;;;;;5024664;28;20073;-88
2023/06/09 08:49:59;;;;;;;2.80;1.15;;;30.30;1.00;;;;;;5026397;28;20542;-88
2023/06/09 08:52:27;;;;;;;0.30;0.30;;;29.70;99.90;;;;;;5026292;28;20053;-88
2023/06/09 08:54:54;;;;;;;17.08;9.45;;;30.30;1.00;;;;;;5025506;28;20107;-88
2023/06/09 08:57:21;;;;;;;5.38;3.70;;;30.90;1.00;;;;;;5025191;28;20057;-88
2023/06/09 08:59:47;;;;;;;2.28;1.70;;;31.30;1.00;;;;;;5025586;28;20041;-87
2023/06/09 09:02:13;;;;;;;7.00;2.38;;;30.70;99.90;;;;;;5027350;28;20037;-89
2023/06/09 09:04:40;;;;;;;1.02;0.88;;;31.00;1.00;;;;;;5031574;28;20084;-88
2023/06/09 09:07:06;;;;;;;0.93;0.70;;;31.50;1.00;;;;;;5034298;28;20102;-88
2023/06/09 09:09:32;;;;;;;0.20;0.20;;;31.60;1.00;;;;;;5027568;28;20093;-88
2023/06/09 09:11:59;;;;;;;0.85;0.60;;;32.10;1.00;;;;;;5029138;28;20066;-88
2023/06/09 09:14:25;;;;;;;1.88;0.45;;;31.70;99.90;;;;;;5026398;28;20092;-88
2023/06/09 09:16:51;;;;;;;7.65;1.95;;;31.70;99.90;;;;;;5025377;28;20388;-88
2023/06/09 09:19:26;;;;;;;0.52;0.40;;;31.70;99.90;;;;;;5026695;28;20095;-88
2023/06/09 09:21:54;;;;;;;1.02;0.90;;;31.60;99.90;;;;;;5026931;28;20598;-88
2023/06/09 09:24:19;;;;;;;0.15;0.10;;;32.10;99.90;;;;;;5025923;28;20107;-88
2023/06/09 09:26:45;;;;;;;0.20;0.20;;;32.60;99.90;;;;;;5025556;28;20053;-88
2023/06/09 09:29:11;;;;;;;1.45;0.40;;;32.40;99.90;;;;;;5027438;28;20046;-88
2023/06/09 09:31:41;;;;;;;0.10;0.10;;;31.90;99.90;;;;;;5027036;28;20450;-88
2023/06/09 09:34:11;;;;;;;0.95;0.45;;;32.00;99.90;;;;;;5027659;28;20049;-88
2023/06/09 09:36:45;;;;;;;1.02;0.63;;;31.80;99.90;;;;;;5026458;28;20049;-88
2023/06/09 09:39:11;;;;;;;0.75;0.52;;;31.70;99.90;;;;;;5026637;28;20574;-88
2023/06/09 09:41:37;;;;;;;0.20;0.20;;;31.90;99.90;;;;;;5025829;28;20104;-88
2023/06/09 09:44:02;;;;;;;3.10;0.65;;;31.90;99.90;;;;;;5024790;28;20499;-88
2023/06/09 09:46:39;;;;;;;0.57;0.47;;;32.00;99.90;;;;;;5025808;28;20045;-87
2023/06/09 09:49:07;;;;;;;0.80;0.55;;;31.70;99.90;;;;;;5024567;28;20488;-87
2023/06/09 09:51:35;;;;;;;0.22;0.22;;;32.70;99.90;;;;;;5026714;28;20049;-88
2023/06/09 09:54:01;;;;;;;0.40;0.10;;;32.80;99.90;;;;;;5025821;28;20053;-88
2023/06/09 09:56:30;;;;;;;0.80;0.70;;;32.10;99.90;;;;;;5027016;28;20514;-88
2023/06/09 09:58:56;;;;;;;0.50;0.50;;;31.80;99.90;;;;;;5024555;28;20079;-87
2023/06/09 10:01:24;;;;;;;4.28;0.63;;;30.70;99.90;;;;;;5024453;28;20089;-87
2023/06/09 10:03:51;;;;;;;0.82;0.28;;;29.90;99.90;;;;;;5023516;28;20139;-87
2023/06/09 10:06:18;;;;;;;0.70;0.28;;;30.00;99.90;;;;;;5024836;28;20045;-87
2023/06/09 10:08:45;;;;;;;0.57;0.38;;;30.20;99.90;;;;;;5025199;28;20581;-88
2023/06/09 10:11:12;;;;;;;1.80;0.70;;;30.40;99.90;;;;;;5026689;28;20257;-88
2023/06/09 10:13:38;;;;;;;1.95;0.85;;;31.00;99.90;;;;;;5024451;28;20148;-87
2023/06/09 10:16:05;;;;;;;0.55;0.47;;;31.20;99.90;;;;;;5024478;28;20135;-87
2023/06/09 10:18:32;;;;;;;0.10;0.10;;;31.30;99.90;;;;;;5022305;28;20080;-87
2023/06/09 10:20:58;;;;;;;0.40;0.40;;;30.70;99.90;;;;;;5023355;28;20053;-88
2023/06/09 10:23:25;;;;;;;0.90;0.63;;;30.90;99.90;;;;;;5026046;28;21058;-88
2023/06/09 10:25:52;;;;;;;0.50;0.43;;;31.00;99.90;;;;;;5025435;28;20049;-88
2023/06/09 10:28:19;;;;;;;1.77;1.23;;;31.00;99.90;;;;;;5007722;28;20112;-88
2023/06/09 10:30:46;;;;;;;0.25;0.25;;;30.30;99.90;;;;;;5024376;28;20347;-88
2023/06/09 10:33:16;;;;;;;0.60;0.40;;;30.10;99.90;;;;;;5007230;28;20045;-87
2023/06/09 10:35:44;;;;;;;0.80;0.65;;;30.30;99.90;;;;;;5024113;28;20852;-88
2023/06/09 10:38:24;;;;;;;0.70;0.32;;;29.90;99.90;;;;;;5024395;28;20131;-87
2023/06/09 10:40:57;;;;;;;1.27;0.88;;;29.90;99.90;;;;;;5022272;28;20390;-88
2023/06/09 10:43:51;;;;;;;1.80;0.60;;;29.90;99.90;;;;;;5024559;28;20061;-87
2023/06/09 10:46:16;;;;;;;1.60;0.57;;;29.00;99.90;;;;;;5024577;28;20079;-89
2023/06/09 10:48:50;;;;;;;1.40;0.60;;;28.70;99.90;;;;;;5025349;28;20139;-89
2023/06/09 10:51:38;;;;;;;1.35;0.75;;;29.40;99.90;;;;;;5025183;28;20080;-89
2023/06/09 10:54:09;;;;;;;0.28;0.25;;;29.90;99.90;;;;;;5025569;28;20080;-89
2023/06/09 10:56:53;;;;;;;0.77;0.47;;;30.30;99.90;;;;;;5027480;28;20439;-88
2023/06/09 10:59:25;;;;;;;2.03;1.38;;;29.80;99.90;;;;;;5024361;28;20076;-87
2023/06/09 11:02:02;;;;;;;1.23;0.43;;;30.30;99.90;;;;;;5025153;28;20053;-89
2023/06/09 11:05:01;;;;;;;0.70;0.57;;;30.40;99.90;;;;;;5023239;28;20496;-88
2023/06/09 11:07:32;;;;;;;0.93;0.63;;;30.80;99.90;;;;;;5020126;28;20061;-88
2023/06/09 11:09:58;;;;;;;0.90;0.75;;;31.30;99.90;;;;;;5022637;28;20100;-88
2023/06/09 11:12:38;;;;;;;1.77;0.82;;;31.70;99.90;;;;;;5022550;28;20156;-88
2023/06/09 11:15:06;;;;;;;0.40;0.35;;;32.10;99.90;;;;;;5022441;28;20041;-87
2023/06/09 11:17:37;;;;;;;0.40;0.40;;;32.50;99.90;;;;;;5021611;28;20139;-87
2023/06/09 11:20:09;;;;;;;1.58;0.90;;;32.40;99.90;;;;;;5022356;28;20049;-87
2023/06/09 11:22:41;;;;;;;0.43;0.35;;;31.70;99.90;;;;;;5021288;28;20049;-87
2023/06/09 11:25:19;;;;;;;1.00;0.68;;;31.20;99.90;;;;;;5021881;28;20052;-87
2023/06/09 11:27:47;;;;;;;0.43;0.43;;;31.70;99.90;;;;;;5020523;28;20065;-87
2023/06/09 11:30:18;;;;;;;1.25;0.40;;;31.90;99.90;;;;;;5023561;28;20099;-86
2023/06/09 11:32:55;;;;;;;0.10;0.10;;;32.40;99.90;;;;;;5023294;28;20332;-86
2023/06/09 11:35:39;;;;;;;0.77;0.52;;;32.90;99.90;;;;;;5023674;28;20080;-87
2023/06/09 11:38:10;;;;;;;2.58;0.47;;;33.00;99.90;;;;;;5023253;28;20103;-87
2023/06/09 11:40:48;;;;;;;5.78;0.93;;;34.00;99.90;;;;;;5024726;28;20814;-87
2023/06/09 11:43:14;;;;;;;0.73;0.50;;;34.70;99.90;;;;;;5006534;28;20180;-87
2023/06/09 11:45:40;;;;;;;0.57;0.50;;;35.00;99.90;;;;;;5028981;28;20132;-87
2023/06/09 11:48:07;;;;;;;0.88;0.65;;;35.40;99.90;;;;;;5023765;28;20052;-87
2023/06/09 11:50:44;;;;;;;0.63;0.47;;;35.50;99.90;;;;;;5025410;28;20077;-87
2023/06/09 11:53:15;;;;;;;0.32;0.30;;;35.60;99.90;;;;;;5024248;28;20056;-87
2023/06/09 11:55:42;;;;;;;1.52;0.73;;;35.40;99.90;;;;;;5022569;28;20118;-87
2023/06/09 11:58:12;;;;;;;0.52;0.40;;;35.90;99.90;;;;;;5024241;28;20075;-87
2023/06/09 12:00:40;;;;;;;0.70;0.43;;;34.40;99.90;;;;;;5024254;28;20081;-87
2023/06/09 12:03:07;;;;;;;0.30;0.30;;;35.20;99.90;;;;;;5025902;28;20103;-87
2023/06/09 12:05:33;;;;;;;0.30;0.30;;;35.20;99.90;;;;;;5026759;28;20060;-87
2023/06/09 12:08:00;;;;;;;0.55;0.32;;;35.30;99.90;;;;;;5028121;28;20050;-87
2023/06/09 12:10:27;;;;;;;0.82;0.75;;;35.80;99.90;;;;;;5047042;28;20040;-87
2023/06/09 12:12:58;;;;;;;0.40;0.30;;;36.30;99.90;;;;;;5055799;28;20052;-87
2023/06/09 12:15:28;;;;;;;0.90;0.70;;;36.70;99.90;;;;;;5065508;28;20052;-86
2023/06/09 12:17:57;;;;;;;1.65;0.85;;;37.10;99.90;;;;;;5063693;28;20068;-85
2023/06/09 12:20:32;;;;;;;0.20;0.20;;;36.40;99.90;;;;;;5066964;28;20092;-86
2023/06/09 12:23:13;;;;;;;0.15;0.15;;;36.60;99.90;;;;;;5058301;28;20404;-87
2023/06/09 12:25:43;;;;;;;5.22;1.65;;;36.70;99.90;;;;;;5046623;28;20045;-88
2023/06/09 12:28:23;;;;;;;2.63;1.13;;;36.10;99.90;;;;;;5044732;28;20112;-86
2023/06/09 12:31:09;;;;;;;2.13;1.23;;;36.40;99.90;;;;;;5044981;28;20134;-88
2023/06/09 12:33:36;;;;;;;0.85;0.57;;;35.70;99.90;;;;;;5042822;28;20044;-87
2023/06/09 12:36:11;;;;;;;0.47;0.38;;;34.60;99.90;;;;;;5043732;28;20053;-87
2023/06/09 12:38:38;;;;;;;0.20;0.20;;;35.10;99.90;;;;;;5046134;28;20041;-87
2023/06/09 12:41:09;;;;;;;2.50;0.50;;;36.00;99.90;;;;;;5044488;28;20084;-87
2023/06/09 12:43:44;;;;;;;1.38;0.82;;;36.40;99.90;;;;;;5046118;28;20049;-87
2023/06/09 12:46:10;;;;;;;0.35;0.32;;;37.10;99.90;;;;;;5043808;28;20642;-87
2023/06/09 12:49:01;;;;;;;0.88;0.77;;;37.20;99.90;;;;;;5043508;28;20109;-87
2023/06/09 12:51:27;;;;;;;2.05;0.95;;;37.00;99.90;;;;;;5043501;28;20053;-87
2023/06/09 12:53:54;;;;;;;0.85;0.75;;;37.00;99.90;;;;;;5043401;28;20052;-87
2023/06/09 12:56:19;;;;;;;5.07;0.52;;;37.30;99.90;;;;;;5043586;28;20099;-87